createdAt,value
2023-02-02T00:00:22.712Z,34.50
2023-02-02T00:02:49.272Z,29.27
2023-02-02T00:05:15.957Z,32.90
2023-02-02T00:07:42.493Z,27.88
2023-02-02T00:10:09.463Z,26.00
2023-02-02T00:12:35.977Z,28.05
2023-02-02T00:15:02.480Z,34.22
2023-02-02T00:17:28.960Z,28.83
2023-02-02T00:19:55.390Z,32.40
2023-02-02T00:22:21.977Z,28.85
2023-02-02T00:24:48.466Z,25.75
2023-02-02T00:27:14.922Z,39.33
2023-02-02T00:29:41.321Z,27.63
2023-02-02T00:32:07.901Z,34.05
2023-02-02T00:34:34.365Z,33.03
2023-02-02T00:37:00.927Z,30.25
2023-02-02T00:39:27.507Z,27.95
2023-02-02T00:41:54.688Z,36.03
2023-02-02T00:44:39.697Z,31.55
2023-02-02T00:47:06.215Z,27.75
2023-02-02T00:49:32.699Z,35.78
2023-02-02T00:52:00.276Z,26.52
2023-02-02T00:54:26.903Z,35.00
2023-02-02T00:56:53.462Z,37.22
2023-02-02T00:59:19.898Z,34.47
2023-02-02T01:01:46.363Z,32.22
2023-02-02T01:04:12.958Z,27.45
2023-02-02T01:06:39.385Z,29.27
2023-02-02T01:09:05.896Z,30.98
2023-02-02T01:11:32.377Z,33.55
2023-02-02T01:13:58.854Z,31.10
2023-02-02T01:16:25.422Z,31.92
2023-02-02T01:18:52.434Z,24.10
2023-02-02T01:21:21.913Z,28.52
2023-02-02T01:26:16.224Z,34.10
2023-02-02T01:28:43.332Z,32.95
2023-02-02T01:31:12.401Z,26.85
2023-02-02T01:33:39.330Z,30.00
2023-02-02T01:36:10.038Z,24.65
2023-02-02T01:38:36.747Z,28.33
2023-02-02T01:41:04.640Z,29.90
2023-02-02T01:43:52.878Z,28.88
2023-02-02T01:46:22.515Z,37.33
2023-02-02T01:49:19.963Z,32.35
2023-02-02T01:51:56.328Z,26.88
2023-02-02T01:54:35.637Z,30.65
2023-02-02T01:59:35.728Z,30.88
2023-02-02T02:02:03.023Z,29.92
2023-02-02T02:04:31.295Z,40.08
2023-02-02T02:06:58.911Z,32.95
2023-02-02T02:09:25.504Z,31.75
2023-02-02T02:11:53.546Z,28.60
2023-02-02T02:14:39.944Z,37.97
2023-02-02T02:17:21.589Z,35.13
2023-02-02T02:20:12.881Z,30.88
2023-02-02T02:23:25.944Z,28.60
2023-02-02T02:26:34.750Z,26.85
2023-02-02T02:29:32.305Z,36.63
2023-02-02T02:32:29.888Z,34.15
2023-02-02T02:35:05.543Z,33.03
2023-02-02T02:37:46.717Z,30.27
2023-02-02T02:40:39.945Z,26.30
2023-02-02T02:43:15.495Z,27.88
2023-02-02T02:45:44.572Z,29.85
2023-02-02T02:48:11.387Z,33.95
2023-02-02T02:50:38.405Z,30.38
2023-02-02T02:53:21.505Z,31.75
2023-02-02T02:55:56.813Z,33.10
2023-02-02T02:58:49.065Z,31.98
2023-02-02T03:01:28.518Z,30.77
2023-02-02T03:04:10.903Z,31.73
2023-02-02T03:07:04.673Z,32.58
2023-02-02T03:09:35.950Z,32.53
2023-02-02T03:12:03.095Z,31.23
2023-02-02T03:14:34.168Z,29.98
2023-02-02T03:17:00.612Z,31.42
2023-02-02T03:19:27.368Z,33.75
2023-02-02T03:21:53.904Z,27.73
2023-02-02T03:24:20.388Z,29.27
2023-02-02T03:26:46.984Z,31.40
2023-02-02T03:29:13.961Z,35.47
2023-02-02T03:31:40.479Z,29.10
2023-02-02T03:34:07.027Z,32.00
2023-02-02T03:36:33.510Z,28.48
2023-02-02T03:38:59.961Z,30.73
2023-02-02T03:41:26.548Z,37.58
2023-02-02T03:43:53.066Z,32.95
2023-02-02T03:46:19.577Z,32.38
2023-02-02T03:48:46.078Z,30.10
2023-02-02T03:51:14.489Z,30.20
2023-02-02T03:53:44.915Z,37.92
2023-02-02T03:56:11.463Z,28.63
2023-02-02T03:58:37.893Z,26.90
2023-02-02T04:01:06.882Z,29.58
2023-02-02T04:03:34.123Z,35.75
2023-02-02T04:06:00.844Z,32.42
2023-02-02T04:08:28.474Z,35.50
2023-02-02T04:10:54.878Z,39.45
2023-02-02T04:13:21.465Z,29.85
2023-02-02T04:15:48.201Z,28.65
2023-02-02T04:18:14.676Z,31.60
2023-02-02T04:20:41.167Z,30.30
2023-02-02T04:23:07.700Z,32.42
2023-02-02T04:25:34.322Z,25.42
2023-02-02T04:28:00.810Z,34.55
2023-02-02T04:30:27.250Z,32.15
2023-02-02T04:32:54.870Z,32.63
2023-02-02T04:35:21.396Z,36.13
2023-02-02T04:37:47.949Z,35.38
2023-02-02T04:40:14.456Z,28.83
2023-02-02T04:42:40.997Z,28.55
2023-02-02T04:45:07.939Z,33.80
2023-02-02T04:47:34.527Z,38.92
2023-02-02T04:50:00.971Z,29.00
2023-02-02T04:52:29.042Z,36.05
2023-02-02T04:54:55.593Z,27.40
2023-02-02T04:57:22.169Z,29.95
2023-02-02T04:59:49.203Z,29.00
2023-02-02T05:02:15.728Z,34.38
2023-02-02T05:04:42.270Z,31.27
2023-02-02T05:07:08.959Z,30.70
2023-02-02T05:09:35.450Z,33.00
2023-02-02T05:12:01.932Z,34.33
2023-02-02T05:14:28.359Z,34.47
2023-02-02T05:16:54.949Z,39.55
2023-02-02T05:19:21.556Z,33.85
2023-02-02T05:21:51.133Z,36.13
2023-02-02T05:24:18.046Z,33.38
2023-02-02T05:26:44.601Z,42.30
2023-02-02T05:29:11.094Z,42.05
2023-02-02T05:31:37.733Z,32.97
2023-02-02T05:34:06.689Z,29.83
2023-02-02T05:36:33.253Z,35.25
2023-02-02T05:39:00.357Z,43.40
2023-02-02T05:41:26.948Z,35.00
2023-02-02T05:43:53.527Z,32.42
2023-02-02T05:46:20.060Z,32.65
2023-02-02T05:48:46.771Z,36.25
2023-02-02T05:51:20.234Z,29.95
2023-02-02T05:53:46.751Z,38.97
2023-02-02T05:56:15.532Z,35.50
2023-02-02T05:58:42.971Z,35.63
2023-02-02T06:01:09.899Z,32.30
2023-02-02T06:03:36.522Z,37.40
2023-02-02T06:06:06.580Z,31.52
2023-02-02T06:08:33.401Z,33.60
2023-02-02T06:10:59.881Z,37.55
2023-02-02T06:13:26.594Z,33.92
2023-02-02T06:15:53.132Z,27.75
2023-02-02T06:18:19.643Z,37.53
2023-02-02T06:20:46.983Z,30.20
2023-02-02T06:23:13.600Z,26.38
2023-02-02T06:25:40.120Z,32.78
2023-02-02T06:28:07.697Z,38.03
2023-02-02T06:30:34.314Z,29.75
2023-02-02T06:33:00.941Z,28.75
2023-02-02T06:35:27.702Z,36.65
2023-02-02T06:37:54.269Z,34.53
2023-02-02T06:40:20.825Z,30.15
2023-02-02T06:42:47.302Z,28.30
2023-02-02T06:45:13.858Z,32.92
2023-02-02T06:47:40.440Z,33.38
2023-02-02T06:50:08.705Z,25.35
2023-02-02T06:52:35.317Z,30.73
2023-02-02T06:55:01.858Z,31.65
2023-02-02T06:57:28.383Z,37.53
2023-02-02T06:59:54.898Z,31.48
2023-02-02T07:02:23.268Z,31.65
2023-02-02T07:04:49.780Z,25.92
2023-02-02T07:07:16.302Z,30.67
2023-02-02T07:09:43.071Z,26.10
2023-02-02T07:12:09.903Z,31.10
2023-02-02T07:14:36.423Z,31.15
2023-02-02T07:17:02.879Z,24.77
2023-02-02T07:19:29.384Z,29.10
2023-02-02T07:21:55.860Z,27.85
2023-02-02T07:24:22.454Z,28.02
2023-02-02T07:26:48.998Z,28.05
2023-02-02T07:29:15.628Z,30.17
2023-02-02T07:31:42.270Z,27.38
2023-02-02T07:34:08.814Z,32.58
2023-02-02T07:36:35.943Z,25.42
2023-02-02T07:39:04.686Z,32.88
2023-02-02T07:41:31.803Z,28.83
2023-02-02T07:43:58.380Z,30.48
2023-02-02T07:46:25.143Z,36.72
2023-02-02T07:48:55.113Z,30.38
2023-02-02T07:51:21.988Z,31.48
2023-02-02T07:53:51.935Z,26.58
2023-02-02T07:56:21.677Z,26.45
2023-02-02T07:58:48.546Z,31.88
2023-02-02T08:01:16.050Z,36.97
2023-02-02T08:03:43.318Z,26.08
2023-02-02T08:06:13.274Z,28.00
2023-02-02T08:08:40.108Z,20.20
2023-02-02T08:11:13.362Z,23.65
2023-02-02T08:13:41.856Z,28.77
2023-02-02T08:16:09.058Z,27.40
2023-02-02T08:18:36.247Z,28.50
2023-02-02T08:21:04.295Z,29.77
2023-02-02T08:23:31.334Z,28.70
2023-02-02T08:26:13.867Z,24.98
2023-02-02T08:28:41.528Z,31.98
2023-02-02T08:31:16.155Z,28.55
2023-02-02T08:33:43.076Z,28.60
2023-02-02T08:36:17.797Z,28.92
2023-02-02T08:38:44.655Z,30.23
2023-02-02T08:41:14.003Z,33.53
2023-02-02T08:43:41.361Z,24.58
2023-02-02T08:46:11.209Z,30.05
2023-02-02T08:48:38.301Z,36.22
2023-02-02T08:51:06.950Z,30.92
2023-02-02T08:53:34.221Z,31.95
2023-02-02T08:56:16.267Z,31.05
2023-02-02T08:58:58.018Z,29.52
2023-02-02T09:01:28.179Z,24.55
2023-02-02T09:04:16.193Z,27.10
2023-02-02T09:06:43.201Z,38.00
2023-02-02T09:09:12.836Z,30.92
2023-02-02T09:11:40.077Z,34.38
2023-02-02T09:14:07.668Z,29.00
2023-02-02T09:16:35.502Z,26.98
2023-02-02T09:19:02.645Z,30.17
2023-02-02T09:21:29.276Z,33.63
2023-02-02T09:23:55.802Z,28.75
2023-02-02T09:26:25.990Z,29.80
2023-02-02T09:28:55.275Z,27.20
2023-02-02T09:31:23.460Z,30.45
2023-02-02T09:33:50.567Z,29.55
2023-02-02T09:36:22.623Z,27.73
2023-02-02T09:38:50.674Z,29.77
2023-02-02T09:41:38.155Z,28.92
2023-02-02T09:44:22.784Z,37.75
2023-02-02T09:47:01.453Z,27.25
2023-02-02T09:49:44.942Z,28.05
2023-02-02T09:52:23.324Z,31.90
2023-02-02T09:54:54.795Z,24.98
2023-02-02T09:57:28.339Z,28.35
2023-02-02T09:59:55.723Z,28.48
2023-02-02T10:02:38.617Z,25.88
2023-02-02T10:05:15.434Z,27.73
2023-02-02T10:07:48.198Z,25.05
2023-02-02T10:10:20.587Z,24.27
2023-02-02T10:13:05.931Z,26.90
2023-02-02T10:16:01.805Z,26.67
2023-02-02T10:18:45.163Z,24.40
2023-02-02T10:21:29.042Z,26.20
2023-02-02T10:23:57.191Z,28.13
2023-02-02T10:26:38.709Z,26.35
2023-02-02T10:29:26.299Z,28.08
2023-02-02T10:32:24.387Z,31.75
2023-02-02T10:35:17.179Z,24.58
2023-02-02T10:37:59.859Z,24.65
2023-02-02T10:40:38.281Z,27.88
2023-02-02T10:43:47.245Z,30.92
2023-02-02T10:46:30.414Z,20.98
2023-02-02T10:49:29.252Z,24.55
2023-02-02T10:52:13.782Z,28.98
2023-02-02T10:55:07.719Z,21.85
2023-02-02T10:57:50.860Z,28.35
2023-02-02T11:00:39.025Z,24.73
2023-02-02T11:03:07.162Z,24.00
2023-02-02T11:05:52.725Z,21.92
2023-02-02T11:08:25.091Z,33.22
2023-02-02T11:10:54.725Z,28.20
2023-02-02T11:13:33.763Z,25.13
2023-02-02T11:16:15.570Z,23.45
2023-02-02T11:18:44.339Z,29.67
2023-02-02T11:21:21.871Z,24.25
2023-02-02T11:23:59.068Z,25.13
2023-02-02T11:26:27.580Z,26.50
2023-02-02T11:28:56.176Z,22.00
2023-02-02T11:31:41.250Z,26.48
2023-02-02T11:34:20.592Z,22.30
2023-02-02T11:39:28.508Z,27.10
2023-02-02T11:42:00.920Z,24.15
2023-02-02T11:44:29.378Z,26.52
2023-02-02T11:46:57.363Z,19.30
2023-02-02T11:49:24.457Z,26.55
2023-02-02T11:52:04.415Z,25.27
2023-02-02T11:54:35.841Z,20.98
2023-02-02T11:57:09.593Z,19.85
2023-02-02T11:59:39.315Z,24.05
2023-02-02T12:04:56.479Z,26.92
2023-02-02T12:07:29.144Z,26.92
2023-02-02T12:10:13.543Z,30.05
2023-02-02T12:12:53.484Z,19.33
2023-02-02T12:15:31.787Z,24.27
2023-02-02T12:18:22.909Z,27.10
2023-02-02T12:21:04.663Z,21.17
2023-02-02T12:23:39.896Z,28.75
2023-02-02T12:26:20.130Z,23.90
2023-02-02T12:28:54.256Z,24.45
2023-02-02T12:31:32.950Z,21.23
2023-02-02T12:34:15.961Z,23.80
2023-02-02T12:37:13.611Z,25.10
2023-02-02T12:40:21.675Z,25.85
2023-02-02T12:43:13.457Z,24.98
2023-02-02T12:45:51.068Z,18.70
2023-02-02T12:48:39.135Z,20.77
2023-02-02T12:51:31.215Z,26.63
2023-02-02T12:54:34.643Z,23.50
2023-02-02T12:57:19.910Z,23.88
2023-02-02T13:00:23.980Z,23.63
2023-02-02T13:03:05.967Z,23.40
2023-02-02T13:05:55.533Z,24.63
2023-02-02T13:08:35.987Z,25.30
2023-02-02T13:11:30.909Z,22.30
2023-02-02T13:14:08.399Z,23.55
2023-02-02T13:16:38.082Z,21.95
2023-02-02T13:19:11.403Z,22.60
2023-02-02T13:21:39.815Z,21.30
2023-02-02T13:24:11.992Z,23.27
2023-02-02T13:26:42.747Z,22.83
2023-02-02T13:29:22.214Z,17.42
2023-02-02T13:32:04.335Z,20.48
2023-02-02T13:34:46.836Z,19.73
2023-02-02T13:37:19.175Z,14.90
2023-02-02T13:39:58.458Z,19.42
2023-02-02T13:42:49.413Z,22.63
2023-02-02T13:45:34.667Z,19.45
2023-02-02T13:48:41.339Z,22.33
2023-02-02T13:51:42.313Z,17.63
2023-02-02T13:54:20.759Z,20.38
2023-02-02T13:57:02.846Z,17.73
2023-02-02T13:59:57.608Z,21.00
2023-02-02T14:02:39.830Z,20.10
2023-02-02T14:05:08.640Z,18.10
2023-02-02T14:07:41.913Z,17.90
2023-02-02T14:10:32.625Z,15.43
2023-02-02T14:13:34.494Z,23.83
2023-02-02T14:16:05.575Z,19.80
2023-02-02T14:18:55.925Z,18.05
2023-02-02T14:21:31.470Z,18.98
2023-02-02T14:24:04.680Z,21.88
2023-02-02T14:26:43.586Z,20.98
2023-02-02T14:29:35.675Z,17.17
2023-02-02T14:32:23.827Z,14.30
2023-02-02T14:34:58.968Z,18.42
2023-02-02T14:37:28.345Z,20.48
2023-02-02T14:40:07.097Z,17.55
2023-02-02T14:43:42.508Z,17.20
2023-02-02T14:46:14.913Z,17.80
2023-02-02T14:48:54.018Z,13.07
2023-02-02T14:51:29.361Z,19.00
2023-02-02T14:54:02.511Z,12.85
2023-02-02T14:56:54.299Z,18.77
2023-02-02T14:59:36.067Z,22.73
2023-02-02T15:02:09.767Z,14.88
2023-02-02T15:04:36.484Z,19.90
2023-02-02T15:07:24.579Z,13.77
2023-02-02T15:09:56.586Z,16.58
2023-02-02T15:12:29.412Z,16.25
2023-02-02T15:15:20.485Z,16.73
2023-02-02T15:17:59.986Z,16.70
2023-02-02T15:20:27.418Z,18.30
2023-02-02T15:23:06.030Z,17.13
2023-02-02T15:25:40.651Z,13.30
2023-02-02T15:28:41.220Z,17.48
2023-02-02T15:31:10.663Z,15.52
2023-02-02T15:36:13.489Z,13.52
2023-02-02T15:38:43.042Z,19.15
2023-02-02T15:43:47.302Z,17.35
2023-02-02T15:46:24.184Z,16.27
2023-02-02T15:49:32.600Z,14.32
2023-02-02T15:52:11.609Z,18.17
2023-02-02T15:54:38.517Z,11.70
2023-02-02T15:57:24.943Z,14.82
2023-02-02T15:59:51.794Z,15.65
2023-02-02T16:02:36.479Z,17.60
2023-02-02T16:05:22.187Z,17.55
2023-02-02T16:08:03.759Z,20.75
2023-02-02T16:10:31.343Z,18.85
2023-02-02T16:12:58.500Z,20.02
2023-02-02T16:15:28.479Z,15.27
2023-02-02T16:18:07.904Z,19.10
2023-02-02T16:20:37.266Z,14.45
2023-02-02T16:23:15.432Z,14.98
2023-02-02T16:25:51.293Z,14.63
2023-02-02T16:28:21.837Z,21.17
2023-02-02T16:30:49.336Z,17.10
2023-02-02T16:33:34.893Z,14.25
2023-02-02T16:36:09.968Z,14.98
2023-02-02T16:38:39.500Z,12.93
2023-02-02T16:41:08.814Z,18.33
2023-02-02T16:43:37.997Z,16.35
2023-02-02T16:46:16.457Z,18.38
2023-02-02T16:48:55.394Z,13.17
2023-02-02T16:51:24.198Z,14.50
2023-02-02T16:54:05.908Z,13.65
2023-02-02T16:56:41.805Z,15.38
2023-02-02T16:59:27.745Z,13.05
2023-02-02T17:01:58.103Z,14.98
2023-02-02T17:04:31.005Z,13.82
2023-02-02T17:07:07.337Z,12.35
2023-02-02T17:09:42.094Z,15.27
2023-02-02T17:12:37.466Z,19.33
2023-02-02T17:15:28.132Z,15.75
2023-02-02T17:17:55.033Z,13.15
2023-02-02T17:20:23.014Z,14.48
2023-02-02T17:23:09.724Z,18.55
2023-02-02T17:25:42.295Z,13.68
2023-02-02T17:28:15.797Z,15.60
2023-02-02T17:30:44.166Z,21.05
2023-02-02T17:33:16.233Z,18.45
2023-02-02T17:35:54.136Z,15.02
2023-02-02T17:38:22.344Z,14.65
2023-02-02T17:40:49.869Z,14.60
2023-02-02T17:43:16.621Z,17.83
2023-02-02T17:45:43.571Z,14.68
2023-02-02T17:48:12.171Z,17.98
2023-02-02T17:50:40.054Z,12.88
2023-02-02T17:53:10.718Z,16.27
2023-02-02T17:55:39.862Z,14.82
2023-02-02T17:58:06.460Z,16.38
2023-02-02T18:00:33.081Z,16.45
2023-02-02T18:03:09.369Z,16.98
2023-02-02T18:05:37.922Z,18.08
2023-02-02T18:08:04.896Z,20.83
2023-02-02T18:10:31.454Z,17.60
2023-02-02T18:12:58.116Z,16.40
2023-02-02T18:15:24.860Z,15.95
2023-02-02T18:17:51.526Z,21.08
2023-02-02T18:20:19.262Z,18.45
2023-02-02T18:22:48.221Z,17.45
2023-02-02T18:25:15.242Z,18.67
2023-02-02T18:27:42.081Z,16.55
2023-02-02T18:30:09.766Z,15.25
2023-02-02T18:32:38.337Z,16.63
2023-02-02T18:35:05.886Z,17.65
2023-02-02T18:37:32.556Z,17.85
2023-02-02T18:39:59.073Z,16.83
2023-02-02T18:42:29.776Z,21.65
2023-02-02T18:44:56.588Z,21.30
2023-02-02T18:47:23.383Z,17.90
2023-02-02T18:49:49.910Z,19.25
2023-02-02T18:52:16.539Z,21.40
2023-02-02T18:54:43.153Z,20.92
2023-02-02T18:57:13.815Z,20.85
2023-02-02T18:59:40.876Z,20.27
2023-02-02T19:02:12.322Z,20.40
2023-02-02T19:04:38.886Z,18.25
2023-02-02T19:07:23.962Z,18.83
2023-02-02T19:09:50.589Z,22.30
2023-02-02T19:12:17.228Z,20.45
2023-02-02T19:14:45.197Z,20.00
2023-02-02T19:17:14.494Z,19.80
2023-02-02T19:19:42.913Z,23.20
2023-02-02T19:22:20.039Z,19.10
2023-02-02T19:24:47.063Z,16.98
2023-02-02T19:27:23.245Z,18.67
2023-02-02T19:29:52.993Z,15.43
2023-02-02T19:32:23.105Z,21.33
2023-02-02T19:34:52.492Z,16.58
2023-02-02T19:37:25.962Z,19.65
2023-02-02T19:40:10.459Z,18.90
2023-02-02T19:42:45.403Z,19.42
2023-02-02T19:45:31.110Z,17.98
2023-02-02T19:48:00.261Z,15.85
2023-02-02T19:50:31.646Z,20.27
2023-02-02T19:52:58.282Z,22.02
2023-02-02T19:55:36.279Z,15.05
2023-02-02T19:58:15.716Z,18.27
2023-02-02T20:00:42.475Z,21.98
2023-02-02T20:03:17.362Z,20.70
2023-02-02T20:05:49.302Z,20.15
2023-02-02T20:08:35.655Z,17.50
2023-02-02T20:11:23.522Z,17.63
2023-02-02T20:13:51.161Z,20.23
2023-02-02T20:16:22.965Z,17.65
2023-02-02T20:18:53.656Z,23.85
2023-02-02T20:21:40.920Z,20.75
2023-02-02T20:24:16.283Z,18.58
2023-02-02T20:26:43.016Z,19.13
2023-02-02T20:29:20.181Z,20.10
2023-02-02T20:31:47.380Z,21.02
2023-02-02T20:34:27.961Z,22.35
2023-02-02T20:37:22.308Z,18.65
2023-02-02T20:39:56.095Z,18.90
2023-02-02T20:42:23.447Z,20.77
2023-02-02T20:44:50.806Z,22.17
2023-02-02T20:47:18.042Z,22.55
2023-02-02T20:49:45.292Z,19.77
2023-02-02T20:52:21.278Z,21.63
2023-02-02T20:54:48.256Z,21.10
2023-02-02T20:57:14.788Z,24.02
2023-02-02T20:59:41.213Z,20.08
2023-02-02T21:02:08.063Z,24.83
2023-02-02T21:04:34.664Z,23.80
2023-02-02T21:07:01.209Z,19.63
2023-02-02T21:09:27.815Z,21.15
2023-02-02T21:11:54.375Z,21.83
2023-02-02T21:14:20.929Z,20.60
2023-02-02T21:16:47.596Z,19.17
2023-02-02T21:19:14.336Z,20.02
2023-02-02T21:21:40.892Z,22.08
2023-02-02T21:24:07.559Z,18.95
2023-02-02T21:26:34.302Z,18.98
2023-02-02T21:29:00.952Z,24.17
2023-02-02T21:31:27.772Z,24.38
2023-02-02T21:33:54.493Z,23.15
2023-02-02T21:36:34.405Z,19.58
2023-02-02T21:39:25.024Z,22.77
2023-02-02T21:42:15.423Z,19.90
2023-02-02T21:45:16.681Z,23.10
2023-02-02T21:47:57.990Z,19.58
2023-02-02T21:50:31.697Z,20.42
2023-02-02T21:53:11.506Z,20.33
2023-02-02T21:55:39.177Z,18.30
2023-02-02T21:58:18.791Z,21.00
2023-02-02T22:00:46.081Z,20.60
2023-02-02T22:03:38.916Z,21.88
2023-02-02T22:06:26.312Z,28.77
2023-02-02T22:09:00.986Z,20.52
2023-02-02T22:11:32.930Z,23.60
2023-02-02T22:14:12.614Z,20.77
2023-02-02T22:16:43.619Z,20.80
2023-02-02T22:19:32.296Z,19.95
2023-02-02T22:22:32.516Z,21.83
2023-02-02T22:25:02.193Z,22.38
2023-02-02T22:27:50.277Z,18.58
2023-02-02T22:30:37.907Z,21.20
2023-02-02T22:33:06.353Z,22.17
2023-02-02T22:35:34.167Z,19.00
2023-02-02T22:38:02.220Z,18.67
2023-02-02T22:40:29.218Z,18.10
2023-02-02T22:43:02.225Z,23.13
2023-02-02T22:45:29.345Z,24.95
2023-02-02T22:47:55.870Z,21.20
2023-02-02T22:50:25.654Z,22.65
2023-02-02T22:52:52.762Z,18.48
2023-02-02T22:55:20.577Z,17.70
2023-02-02T22:57:47.200Z,25.60
2023-02-02T23:00:17.622Z,21.55
2023-02-02T23:02:44.261Z,19.70
2023-02-02T23:05:13.268Z,18.00
2023-02-02T23:07:39.960Z,19.27
2023-02-02T23:10:07.559Z,18.13
2023-02-02T23:12:34.562Z,17.67
2023-02-02T23:15:01.016Z,17.70
2023-02-02T23:17:27.542Z,22.70
2023-02-02T23:19:54.669Z,20.10
2023-02-02T23:22:21.171Z,19.80
2023-02-02T23:24:50.745Z,20.45
2023-02-02T23:27:17.187Z,18.15
2023-02-02T23:29:43.713Z,16.27
2023-02-02T23:32:10.180Z,18.90
2023-02-02T23:34:36.628Z,19.27
2023-02-02T23:37:03.061Z,18.67
2023-02-02T23:39:29.508Z,18.15
2023-02-02T23:41:56.052Z,21.30
2023-02-02T23:44:22.588Z,23.95
2023-02-02T23:46:50.212Z,18.20
2023-02-02T23:49:17.435Z,19.70
2023-02-02T23:51:44.199Z,16.45
2023-02-02T23:54:13.323Z,19.52
2023-02-02T23:56:41.619Z,19.42
2023-02-02T23:59:09.372Z,22.70
